Sand Draw, Wyoming
Current Conditions -  °F | °C
As of 3:53 PM on Wednesday 22 Oct 2014 (Local Time) from KLND Reporting Station
Clear Clear  
Wind Chill: 59°   Ceiling: Unl
Heat Index: 59°   Visibility: 10mi
Dew Point: 20°   Wind: 5mph
Humidity: 22%   Direction: 10°N
Pressure: 30.05"   Gusts: NA
Location:  43.1005°N, 108.934°W
Report Text: KLND 222153Z AUTO 01004KT 10SM CLR 15/M07 A3005 RMK AO2 SLP157 T01501067 TSNO
Loading
Personal Weather Stations






























Interactive Weather Map
Tropical Storm Tracking
New forecast layout! Learn more

10-Day Weather Forecast

Advertisements
Track Severe Weather on mobile